createdAt,value
2022-12-28T00:00:11.420Z,97392.76
2022-12-28T00:02:42.185Z,97397.96
2022-12-28T00:05:11.707Z,97390.59
2022-12-28T00:07:43.857Z,97392.52
2022-12-28T00:10:15.153Z,97393.33
2022-12-28T00:12:44.655Z,97401.80
2022-12-28T00:15:14.157Z,97398.27
2022-12-28T00:17:45.928Z,97397.72
2022-12-28T00:20:15.832Z,97382.69
2022-12-28T00:22:45.513Z,97381.58
2022-12-28T00:25:15.467Z,97376.66
2022-12-28T00:27:47.649Z,97379.12
2022-12-28T00:30:16.952Z,97376.38
2022-12-28T00:32:46.385Z,97384.31
2022-12-28T00:35:17.805Z,97379.39
2022-12-28T00:37:47.205Z,97379.09
2022-12-28T00:40:22.063Z,97382.94
2022-12-28T00:42:47.397Z,97377.46
2022-12-28T00:45:17.078Z,97380.45
2022-12-28T00:47:46.576Z,97384.02
2022-12-28T00:50:16.018Z,97380.73
2022-12-28T00:52:45.241Z,97384.53
2022-12-28T00:55:14.985Z,97380.17
2022-12-28T00:57:44.261Z,97374.15
2022-12-28T01:00:16.660Z,97360.23
2022-12-28T01:02:47.445Z,97358.31
2022-12-28T01:05:17.267Z,97363.22
2022-12-28T01:10:57.180Z,97360.50
2022-12-28T01:13:26.649Z,97347.66
2022-12-28T01:15:56.100Z,97346.55
2022-12-28T01:18:27.011Z,97355.55
2022-12-28T01:20:56.297Z,97358.83
2022-12-28T01:23:26.318Z,97348.72
2022-12-28T01:25:55.773Z,97330.12
2022-12-28T01:31:11.990Z,97328.53
2022-12-28T01:33:41.356Z,97329.84
2022-12-28T01:36:11.049Z,97317.55
2022-12-28T01:38:42.001Z,97310.16
2022-12-28T01:41:11.939Z,97301.96
2022-12-28T01:43:42.635Z,97290.52
2022-12-28T01:46:12.286Z,97294.87
2022-12-28T01:48:43.152Z,97283.94
2022-12-28T01:51:12.510Z,97293.78
2022-12-28T01:53:42.391Z,97282.30
2022-12-28T01:56:11.831Z,97300.85
2022-12-28T01:58:41.294Z,97304.39
2022-12-28T02:01:13.454Z,97299.48
2022-12-28T02:03:43.227Z,97297.30
2022-12-28T02:06:13.497Z,97295.95
2022-12-28T02:08:45.009Z,97297.33
2022-12-28T02:11:14.933Z,97293.50
2022-12-28T02:13:45.506Z,97295.68
2022-12-28T02:16:14.865Z,97296.79
2022-12-28T02:18:45.015Z,97295.14
2022-12-28T02:21:34.642Z,97286.14
2022-12-28T02:24:21.682Z,97281.51
2022-12-28T02:27:01.577Z,97286.42
2022-12-28T02:29:35.721Z,97286.43
2022-12-28T02:32:06.807Z,97290.83
2022-12-28T02:34:38.175Z,97283.74
2022-12-28T02:37:21.603Z,97282.38
2022-12-28T02:39:56.194Z,97282.66
2022-12-28T02:42:27.862Z,97285.13
2022-12-28T02:45:14.588Z,97285.95
2022-12-28T02:48:02.914Z,97283.77
2022-12-28T02:50:33.938Z,97279.94
2022-12-28T02:53:19.889Z,97293.34
2022-12-28T02:56:11.911Z,97281.60
2022-12-28T02:58:48.787Z,97275.59
2022-12-28T03:01:39.659Z,97269.30
2022-12-28T03:04:21.725Z,97271.22
2022-12-28T03:07:24.923Z,97265.75
2022-12-28T03:10:02.410Z,97254.53
2022-12-28T03:12:36.467Z,97250.42
2022-12-28T03:15:10.237Z,97252.89
2022-12-28T03:17:57.914Z,97241.69
2022-12-28T03:20:45.509Z,97235.67
2022-12-28T03:23:33.492Z,97232.67
2022-12-28T03:26:20.787Z,97233.19
2022-12-28T03:29:07.816Z,97231.56
2022-12-28T03:31:38.012Z,97249.05
2022-12-28T03:34:10.851Z,97251.22
2022-12-28T03:36:41.520Z,97264.86
2022-12-28T03:39:18.534Z,97276.05
2022-12-28T03:41:49.397Z,97271.69
2022-12-28T03:44:20.493Z,97263.75
2022-12-28T03:46:51.767Z,97250.09
2022-12-28T03:49:21.183Z,97249.02
2022-12-28T03:51:50.656Z,97245.19
2022-12-28T03:54:20.142Z,97259.12
2022-12-28T03:56:49.947Z,97257.19
2022-12-28T03:59:19.384Z,97264.82
2022-12-28T04:01:49.166Z,97270.56
2022-12-28T04:04:18.670Z,97268.09
2022-12-28T04:06:47.951Z,97272.98
2022-12-28T04:09:18.819Z,97276.27
2022-12-28T04:11:48.306Z,97264.29
2022-12-28T04:14:17.937Z,97255.81
2022-12-28T04:16:49.165Z,97253.91
2022-12-28T04:19:21.413Z,97255.56
2022-12-28T04:21:50.957Z,97271.10
2022-12-28T04:24:20.356Z,97267.56
2022-12-28T04:26:49.984Z,97259.94
2022-12-28T04:29:20.097Z,97264.59
2022-12-28T04:31:49.562Z,97267.84
2022-12-28T04:34:19.133Z,97258.03
2022-12-28T04:36:48.738Z,97273.32
2022-12-28T04:39:18.390Z,97263.77
2022-12-28T04:41:48.719Z,97263.22
2022-12-28T04:44:18.486Z,97259.69
2022-12-28T04:46:50.580Z,97259.72
2022-12-28T04:49:19.196Z,97261.91
2022-12-28T04:51:48.546Z,97261.65
2022-12-28T04:54:18.051Z,97248.55
2022-12-28T04:56:47.549Z,97250.72
2022-12-28T04:59:17.431Z,97237.03
2022-12-28T05:01:49.755Z,97237.29
2022-12-28T05:04:20.068Z,97233.19
2022-12-28T05:06:49.512Z,97241.92
2022-12-28T05:09:20.524Z,97235.65
2022-12-28T05:11:53.594Z,97238.67
2022-12-28T05:14:24.487Z,97241.11
2022-12-28T05:16:54.052Z,97238.38
2022-12-28T05:19:23.991Z,97242.47
2022-12-28T05:21:53.825Z,97247.66
2022-12-28T05:24:23.272Z,97236.75
2022-12-28T05:26:55.809Z,97232.91
2022-12-28T05:29:25.006Z,97226.63
2022-12-28T05:31:54.432Z,97219.80
2022-12-28T05:34:24.032Z,97220.61
2022-12-28T05:36:53.615Z,97210.80
2022-12-28T05:39:23.393Z,97204.52
2022-12-28T05:41:55.769Z,97198.25
2022-12-28T05:44:25.086Z,97190.61
2022-12-28T05:46:57.237Z,97192.23
2022-12-28T05:49:27.072Z,97183.23
2022-12-28T05:51:56.438Z,97170.66
2022-12-28T05:54:25.986Z,97158.92
2022-12-28T05:56:55.856Z,97148.30
2022-12-28T05:59:25.317Z,97142.83
2022-12-28T06:01:54.955Z,97143.91
2022-12-28T06:04:24.798Z,97133.53
2022-12-28T06:06:55.439Z,97133.02
2022-12-28T06:09:26.206Z,97122.61
2022-12-28T06:11:55.784Z,97124.27
2022-12-28T06:14:28.320Z,97118.26
2022-12-28T06:16:57.444Z,97123.16
2022-12-28T06:19:28.264Z,97105.16
2022-12-28T06:21:57.689Z,97111.72
2022-12-28T06:24:27.124Z,97111.71
2022-12-28T06:26:56.562Z,97116.61
2022-12-28T06:29:26.057Z,97111.42
2022-12-28T06:31:55.986Z,97109.52
2022-12-28T06:34:25.292Z,97101.33
2022-12-28T06:36:54.741Z,97104.91
2022-12-28T06:39:24.282Z,97084.16
2022-12-28T06:41:53.804Z,97068.61
2022-12-28T06:44:23.417Z,97065.34
2022-12-28T06:46:53.302Z,97054.42
2022-12-28T06:49:24.854Z,97053.35
2022-12-28T06:51:55.996Z,97056.89
2022-12-28T06:54:25.581Z,97043.80
2022-12-28T06:56:56.562Z,97035.87
2022-12-28T06:59:26.170Z,97039.42
2022-12-28T07:01:57.944Z,97041.59
2022-12-28T07:04:27.891Z,97036.95
2022-12-28T07:06:57.299Z,97030.68
2022-12-28T07:09:26.555Z,97025.77
2022-12-28T07:11:56.005Z,97014.30
2022-12-28T07:14:25.332Z,97010.76
2022-12-28T07:16:54.651Z,97009.09
2022-12-28T07:19:24.506Z,96996.00
2022-12-28T07:21:53.977Z,96984.25
2022-12-28T07:24:23.514Z,96980.70
2022-12-28T07:26:55.798Z,96986.97
2022-12-28T07:29:25.268Z,96987.52
2022-12-28T07:31:54.847Z,96980.94
2022-12-28T07:34:24.661Z,96968.39
2022-12-28T07:36:53.858Z,96971.37
2022-12-28T07:39:25.787Z,96963.98
2022-12-28T07:41:55.489Z,96966.45
2022-12-28T07:44:29.398Z,96966.69
2022-12-28T07:46:55.941Z,96959.05
2022-12-28T07:49:26.196Z,96948.11
2022-12-28T07:51:55.641Z,96954.92
2022-12-28T07:54:24.990Z,96958.46
2022-12-28T07:56:54.692Z,96959.27
2022-12-28T07:59:30.629Z,96951.05
2022-12-28T08:01:55.178Z,96956.51
2022-12-28T08:04:25.331Z,96958.42
2022-12-28T08:06:55.320Z,96961.69
2022-12-28T08:09:24.695Z,96953.48
2022-12-28T08:11:54.742Z,96946.64
2022-12-28T08:14:24.387Z,96936.52
2022-12-28T08:16:53.815Z,96934.29
2022-12-28T08:19:23.206Z,96926.64
2022-12-28T08:21:52.952Z,96918.42
2022-12-28T08:24:24.910Z,96919.22
2022-12-28T08:26:53.212Z,96912.38
2022-12-28T08:29:24.760Z,96904.97
2022-12-28T08:31:56.319Z,96900.60
2022-12-28T08:34:27.494Z,96897.88
2022-12-28T08:36:57.435Z,96897.31
2022-12-28T08:39:26.916Z,96893.75
2022-12-28T08:41:56.546Z,96902.45
2022-12-28T08:44:25.820Z,96896.45
2022-12-28T08:46:56.392Z,96885.50
2022-12-28T08:49:26.362Z,96894.20
2022-12-28T08:51:55.992Z,96888.72
2022-12-28T08:54:25.268Z,96891.43
2022-12-28T08:56:56.669Z,96887.86
2022-12-28T08:59:26.093Z,96887.84
2022-12-28T09:01:56.936Z,96887.83
2022-12-28T09:04:26.541Z,96884.52
2022-12-28T09:06:55.781Z,96888.31
2022-12-28T09:09:25.405Z,96884.75
2022-12-28T09:11:54.831Z,96879.32
2022-12-28T09:14:24.723Z,96884.28
2022-12-28T09:16:55.573Z,96878.86
2022-12-28T09:19:28.154Z,96871.23
2022-12-28T09:21:57.511Z,96867.67
2022-12-28T09:24:27.138Z,96864.44
2022-12-28T09:26:58.003Z,96858.98
2022-12-28T09:29:27.290Z,96843.97
2022-12-28T09:32:00.942Z,96852.20
2022-12-28T09:34:38.331Z,96834.17
2022-12-28T09:37:01.183Z,96831.98
2022-12-28T09:39:30.854Z,96830.92
2022-12-28T09:42:01.984Z,96822.19
2022-12-28T09:44:39.008Z,96821.92
2022-12-28T09:47:17.517Z,96829.03
2022-12-28T09:49:54.469Z,96833.95
2022-12-28T09:52:31.469Z,96835.88
2022-12-28T09:55:02.279Z,96826.33
2022-12-28T09:57:34.332Z,96828.55
2022-12-28T10:00:03.295Z,96823.11
2022-12-28T10:02:33.532Z,96817.66
2022-12-28T10:05:03.141Z,96814.95
2022-12-28T10:07:33.093Z,96810.88
2022-12-28T10:10:06.276Z,96808.97
2022-12-28T10:12:36.193Z,96807.89
2022-12-28T10:15:06.940Z,96798.63
2022-12-28T10:17:37.216Z,96797.55
2022-12-28T10:20:09.302Z,96783.39
2022-12-28T10:22:41.512Z,96774.66
2022-12-28T10:25:15.258Z,96773.58
2022-12-28T10:27:45.929Z,96769.78
2022-12-28T10:30:20.132Z,96769.24
2022-12-28T10:32:56.744Z,96753.44
2022-12-28T10:35:24.737Z,96758.10
2022-12-28T10:37:54.214Z,96754.02
2022-12-28T10:40:25.041Z,96748.02
2022-12-28T10:42:56.364Z,96743.14
2022-12-28T10:45:26.925Z,96749.98
2022-12-28T10:47:56.771Z,96746.45
2022-12-28T10:50:45.912Z,96753.30
2022-12-28T10:53:29.026Z,96749.22
2022-12-28T10:56:15.036Z,96744.84
2022-12-28T10:58:46.085Z,96732.30
2022-12-28T11:01:17.816Z,96739.98
2022-12-28T11:04:00.852Z,96740.55
2022-12-28T11:06:31.556Z,96725.55
2022-12-28T11:09:08.029Z,96717.38
2022-12-28T11:11:37.839Z,96717.39
2022-12-28T11:14:21.425Z,96707.59
2022-12-28T11:16:50.917Z,96716.61
2022-12-28T11:19:20.414Z,96709.80
2022-12-28T11:21:50.533Z,96711.17
2022-12-28T11:24:20.059Z,96722.92
2022-12-28T11:26:54.713Z,96706.83
2022-12-28T11:29:24.215Z,96721.32
2022-12-28T11:31:54.996Z,96718.05
2022-12-28T11:34:29.049Z,96717.51
2022-12-28T11:36:58.638Z,96717.80
2022-12-28T11:39:33.168Z,96707.95
2022-12-28T11:42:37.107Z,96711.22
2022-12-28T11:44:35.457Z,96694.55
2022-12-28T11:47:06.047Z,96704.64
2022-12-28T11:49:38.488Z,96711.45
2022-12-28T11:52:12.698Z,96701.63
2022-12-28T11:54:42.286Z,96705.70
2022-12-28T11:57:12.438Z,96701.05
2022-12-28T11:59:42.180Z,96698.30
2022-12-28T12:02:14.369Z,96692.02
2022-12-28T12:04:44.746Z,96692.53
2022-12-28T12:07:24.722Z,96682.13
2022-12-28T12:09:53.457Z,96689.48
2022-12-28T12:12:26.607Z,96682.64
2022-12-28T12:14:57.446Z,96682.62
2022-12-28T12:17:28.183Z,96677.43
2022-12-28T12:19:59.138Z,96688.33
2022-12-28T12:22:30.107Z,96701.41
2022-12-28T12:25:17.448Z,96700.30
2022-12-28T12:27:54.646Z,96706.27
2022-12-28T12:30:24.357Z,96698.63
2022-12-28T12:32:55.227Z,96706.78
2022-12-28T12:35:26.267Z,96695.28
2022-12-28T12:38:00.450Z,96707.25
2022-12-28T12:40:46.480Z,96697.67
2022-12-28T12:43:30.327Z,96692.19
2022-12-28T12:46:04.415Z,96692.42
2022-12-28T12:48:35.719Z,96694.60
2022-12-28T12:51:09.843Z,96701.13
2022-12-28T12:53:52.829Z,96686.34
2022-12-28T12:56:30.871Z,96676.22
2022-12-28T12:59:04.583Z,96692.31
2022-12-28T13:01:47.823Z,96685.45
2022-12-28T13:04:23.583Z,96698.82
2022-12-28T13:06:54.936Z,96698.52
2022-12-28T13:09:25.156Z,96694.39
2022-12-28T13:11:55.051Z,96700.64
2022-12-28T13:14:25.796Z,96699.81
2022-12-28T13:16:56.809Z,96699.52
2022-12-28T13:19:28.084Z,96687.72
2022-12-28T13:21:59.326Z,96688.53
2022-12-28T13:24:30.066Z,96685.77
2022-12-28T13:27:00.217Z,96688.48
2022-12-28T13:29:34.559Z,96694.73
2022-12-28T13:32:04.132Z,96703.21
2022-12-28T13:34:35.418Z,96690.33
2022-12-28T13:37:06.118Z,96692.23
2022-12-28T13:39:41.808Z,96673.59
2022-12-28T13:42:08.151Z,96677.70
2022-12-28T13:44:44.806Z,96679.95
2022-12-28T13:47:15.667Z,96676.16
2022-12-28T13:49:52.706Z,96665.25
2022-12-28T13:52:23.618Z,96672.95
2022-12-28T13:54:54.253Z,96674.34
2022-12-28T13:59:58.366Z,96674.92
2022-12-28T14:02:28.705Z,96678.20
2022-12-28T14:04:58.251Z,96706.64
2022-12-28T14:07:28.323Z,96704.19
2022-12-28T14:09:57.786Z,96699.58
2022-12-28T14:12:27.458Z,96702.34
2022-12-28T14:14:57.067Z,96697.15
2022-12-28T14:17:26.384Z,96707.54
2022-12-28T14:19:56.238Z,96691.20
2022-12-28T14:22:32.730Z,96698.03
2022-12-28T14:25:05.075Z,96697.19
2022-12-28T14:27:36.681Z,96704.33
2022-12-28T14:30:07.307Z,96706.27
2022-12-28T14:32:43.077Z,96705.18
2022-12-28T14:35:13.309Z,96707.69
2022-12-28T14:37:43.288Z,96707.14
2022-12-28T14:40:16.999Z,96705.52
2022-12-28T14:42:48.964Z,96698.70
2022-12-28T14:45:25.812Z,96693.78
2022-12-28T14:47:58.706Z,96691.11
2022-12-28T14:50:28.933Z,96697.65
2022-12-28T14:53:25.926Z,96682.64
2022-12-28T14:55:57.950Z,96683.20
2022-12-28T14:58:29.003Z,96682.97
2022-12-28T15:01:00.014Z,96679.70
2022-12-28T15:03:30.108Z,96684.91
2022-12-28T15:06:03.660Z,96683.02
2022-12-28T15:08:36.168Z,96693.40
2022-12-28T15:13:37.665Z,96689.34
2022-12-28T15:16:07.997Z,96695.10
2022-12-28T15:18:40.775Z,96695.13
2022-12-28T15:21:10.575Z,96686.64
2022-12-28T15:23:42.690Z,96695.16
2022-12-28T15:26:13.218Z,96697.89
2022-12-28T15:28:42.807Z,96697.34
2022-12-28T15:31:17.595Z,96702.52
2022-12-28T15:33:47.505Z,96695.72
2022-12-28T15:36:18.466Z,96702.56
2022-12-28T15:38:51.074Z,96704.75
2022-12-28T15:41:38.025Z,96694.09
2022-12-28T15:44:13.041Z,96703.70
2022-12-28T15:46:47.500Z,96700.43
2022-12-28T15:49:17.274Z,96707.81
2022-12-28T15:51:48.362Z,96698.27
2022-12-28T15:54:22.325Z,96703.45
2022-12-28T15:56:52.777Z,96698.84
2022-12-28T15:59:22.225Z,96699.11
2022-12-28T16:01:52.222Z,96699.38
2022-12-28T16:04:21.529Z,96696.40
2022-12-28T16:06:52.003Z,96695.30
2022-12-28T16:09:21.816Z,96707.08
2022-12-28T16:11:55.055Z,96705.72
2022-12-28T16:14:27.219Z,96713.63
2022-12-28T16:16:56.815Z,96706.55
2022-12-28T16:19:26.347Z,96703.56
2022-12-28T16:21:55.655Z,96717.45
2022-12-28T16:24:25.070Z,96715.30
2022-12-28T16:26:54.717Z,96723.75
2022-12-28T16:29:24.405Z,96722.13
2022-12-28T16:31:57.823Z,96728.70
2022-12-28T16:34:25.596Z,96728.16
2022-12-28T16:36:59.460Z,96725.44
2022-12-28T16:39:30.051Z,96727.06
2022-12-28T16:41:59.494Z,96728.16
2022-12-28T16:44:29.208Z,96726.78
2022-12-28T16:47:02.673Z,96726.21
2022-12-28T16:49:32.172Z,96721.55
2022-12-28T16:52:01.856Z,96716.64
2022-12-28T16:54:31.626Z,96714.15
2022-12-28T16:57:00.987Z,96702.66
2022-12-28T16:59:30.271Z,96708.39
2022-12-28T17:02:00.069Z,96710.00
2022-12-28T17:04:29.721Z,96697.95
2022-12-28T17:07:00.729Z,96690.30
2022-12-28T17:09:30.094Z,96699.29
2022-12-28T17:11:59.440Z,96705.83
2022-12-28T17:14:37.306Z,96702.23
2022-12-28T17:17:02.076Z,96701.43
2022-12-28T17:19:31.805Z,96715.91
2022-12-28T17:22:01.293Z,96715.91
2022-12-28T17:24:30.916Z,96712.66
2022-12-28T17:27:06.795Z,96705.56
2022-12-28T17:29:30.914Z,96689.75
2022-12-28T17:32:00.678Z,96687.58
2022-12-28T17:34:30.182Z,96690.86
2022-12-28T17:36:59.894Z,96679.13
2022-12-28T17:39:33.180Z,96688.41
2022-12-28T17:42:00.278Z,96680.52
2022-12-28T17:44:29.564Z,96674.52
2022-12-28T17:46:59.056Z,96676.14
2022-12-28T17:49:28.467Z,96663.30
2022-12-28T17:51:58.066Z,96660.32
2022-12-28T17:54:27.687Z,96655.13
2022-12-28T17:56:57.136Z,96648.87
2022-12-28T17:59:26.545Z,96649.17
2022-12-28T18:01:56.137Z,96640.44
2022-12-28T18:04:25.823Z,96645.34
2022-12-28T18:06:55.225Z,96635.80
2022-12-28T18:09:27.949Z,96624.63
2022-12-28T18:11:55.239Z,96630.08
2022-12-28T18:14:24.813Z,96616.16
2022-12-28T18:16:54.430Z,96611.81
2022-12-28T18:19:23.802Z,96608.83
2022-12-28T18:21:53.128Z,96607.46
2022-12-28T18:24:22.855Z,96597.91
2022-12-28T18:26:52.178Z,96591.36
2022-12-28T18:29:21.397Z,96588.89
2022-12-28T18:31:50.842Z,96593.28
2022-12-28T18:34:20.151Z,96584.81
2022-12-28T18:36:50.702Z,96577.19
2022-12-28T18:39:20.323Z,96571.17
2022-12-28T18:41:49.691Z,96573.65
2022-12-28T18:44:19.157Z,96576.93
2022-12-28T18:46:48.689Z,96574.47
2022-12-28T18:49:18.012Z,96566.29
2022-12-28T18:51:47.315Z,96572.30
2022-12-28T18:54:16.888Z,96560.58
2022-12-28T18:56:46.257Z,96564.67
2022-12-28T18:59:15.664Z,96547.77
2022-12-28T19:04:16.239Z,96527.61
2022-12-28T19:06:51.098Z,96525.41
2022-12-28T19:09:20.608Z,96528.14
2022-12-28T19:11:49.877Z,96528.14
2022-12-28T19:14:19.393Z,96539.60
2022-12-28T19:16:48.857Z,96532.80
2022-12-28T19:19:21.885Z,96523.54
2022-12-28T19:21:58.218Z,96517.80
2022-12-28T19:24:26.353Z,96516.73
2022-12-28T19:26:55.539Z,96514.01
2022-12-28T19:29:25.714Z,96526.00
2022-12-28T19:31:55.650Z,96520.02
2022-12-28T19:34:25.308Z,96530.66
2022-12-28T19:36:56.370Z,96517.31
2022-12-28T19:39:25.873Z,96505.56
2022-12-28T19:41:55.231Z,96512.11
2022-12-28T19:44:24.451Z,96509.66
2022-12-28T19:46:55.156Z,96495.77
2022-12-28T19:49:24.631Z,96499.61
2022-12-28T19:51:55.555Z,96500.97
2022-12-28T19:54:29.408Z,96516.78
2022-12-28T19:56:58.345Z,96521.98
2022-12-28T19:59:27.499Z,96530.16
2022-12-28T20:01:57.027Z,96516.80
2022-12-28T20:04:26.481Z,96517.36
2022-12-28T20:06:55.799Z,96523.62
2022-12-28T20:09:28.010Z,96529.34
2022-12-28T20:11:57.569Z,96517.07
2022-12-28T20:14:26.710Z,96508.08
2022-12-28T20:16:56.271Z,96499.64
2022-12-28T20:19:25.781Z,96494.75
2022-12-28T20:21:55.311Z,96507.55
2022-12-28T20:24:24.971Z,96499.11
2022-12-28T20:26:59.698Z,96498.55
2022-12-28T20:29:26.041Z,96507.84
2022-12-28T20:31:55.731Z,96498.86
2022-12-28T20:34:25.347Z,96496.66
2022-12-28T20:36:54.903Z,96484.38
2022-12-28T20:39:24.447Z,96472.41
2022-12-28T20:42:11.639Z,96486.05
2022-12-28T20:44:42.101Z,96476.75
2022-12-28T20:47:12.279Z,96454.44
2022-12-28T20:49:43.218Z,96473.52
2022-12-28T20:52:12.532Z,96488.23
2022-12-28T20:54:42.050Z,96497.78
2022-12-28T20:57:11.758Z,96495.61
2022-12-28T20:59:41.989Z,96483.36
2022-12-28T21:02:12.249Z,96497.25
2022-12-28T21:04:42.022Z,96495.63
2022-12-28T21:07:11.688Z,96498.91
2022-12-28T21:09:42.121Z,96498.11
2022-12-28T21:12:12.098Z,96495.91
2022-12-28T21:14:41.786Z,96493.73
2022-12-28T21:17:12.110Z,96498.93
2022-12-28T21:19:44.940Z,96494.84
2022-12-28T21:22:14.260Z,96498.68
2022-12-28T21:24:46.575Z,96503.30
2022-12-28T21:27:16.306Z,96503.04
2022-12-28T21:29:46.439Z,96500.06
2022-12-28T21:32:16.181Z,96509.05
2022-12-28T21:34:46.821Z,96506.88
2022-12-28T21:37:34.123Z,96500.33
2022-12-28T21:40:04.161Z,96508.27
2022-12-28T21:42:33.737Z,96512.60
2022-12-28T21:45:03.142Z,96504.98
2022-12-28T21:47:33.266Z,96501.16
2022-12-28T21:50:03.648Z,96502.52
2022-12-28T21:52:33.445Z,96507.97
2022-12-28T21:55:07.321Z,96497.89
2022-12-28T21:57:36.681Z,96496.53
2022-12-28T22:00:07.923Z,96493.80
2022-12-28T22:02:55.040Z,96499.26
2022-12-28T22:05:42.978Z,96496.53
2022-12-28T22:08:30.315Z,96490.55
2022-12-28T22:11:17.627Z,96499.27
2022-12-28T22:13:48.354Z,96500.36
2022-12-28T22:16:17.993Z,96499.55
2022-12-28T22:19:02.313Z,96497.38
2022-12-28T22:21:18.400Z,96508.83
2022-12-28T22:23:47.984Z,96506.11
2022-12-28T22:26:20.356Z,96511.28
2022-12-28T22:28:49.810Z,96511.83
2022-12-28T22:31:19.754Z,96506.38
2022-12-28T22:33:50.448Z,96505.02
2022-12-28T22:36:20.850Z,96514.86
2022-12-28T22:38:50.529Z,96520.83
2022-12-28T22:41:20.076Z,96520.02
2022-12-28T22:43:53.010Z,96526.58
2022-12-28T22:46:22.748Z,96524.94
2022-12-28T22:48:54.434Z,96525.78
2022-12-28T22:51:23.973Z,96524.13
2022-12-28T22:53:53.609Z,96534.22
2022-12-28T22:56:23.644Z,96536.14
2022-12-28T22:58:56.544Z,96525.23
2022-12-28T23:01:27.559Z,96540.78
2022-12-28T23:03:58.903Z,96540.23
2022-12-28T23:06:28.175Z,96540.50
2022-12-28T23:08:57.915Z,96545.41
2022-12-28T23:11:40.750Z,96543.80
2022-12-28T23:14:37.285Z,96541.88
2022-12-28T23:17:05.716Z,96549.80
2022-12-28T23:19:51.713Z,96547.63
2022-12-28T23:22:39.422Z,96556.87
2022-12-28T23:25:27.237Z,96552.54
2022-12-28T23:27:57.190Z,96552.80
2022-12-28T23:30:27.162Z,96560.46
2022-12-28T23:32:57.098Z,96561.27
2022-12-28T23:35:26.774Z,96562.34
2022-12-28T23:38:03.780Z,96568.35
2022-12-28T23:40:36.287Z,96572.44
2022-12-28T23:43:06.086Z,96579.80
2022-12-28T23:45:39.327Z,96579.81
2022-12-28T23:48:09.030Z,96585.81
2022-12-28T23:50:38.339Z,96599.69
2022-12-28T23:53:08.216Z,96602.40
2022-12-28T23:55:37.778Z,96601.02
2022-12-28T23:58:07.286Z,96606.46
